createdAt,value
2018-07-16T15:00:05.152Z,31.95
2018-07-16T15:02:33.843Z,32.27
2018-07-16T15:05:02.599Z,32.53
2018-07-16T15:07:31.280Z,31.76
2018-07-16T15:09:59.981Z,31.50
2018-07-16T15:12:28.691Z,31.85
2018-07-16T15:14:57.398Z,31.80
2018-07-16T15:17:26.120Z,31.99
2018-07-16T15:19:54.929Z,31.97
2018-07-16T15:22:23.591Z,31.87
2018-07-16T15:24:52.360Z,32.03
2018-07-16T15:27:21.059Z,32.10
2018-07-16T15:29:49.788Z,32.50
2018-07-16T15:32:18.573Z,32.53
2018-07-16T15:34:47.289Z,32.58
2018-07-16T15:37:16.043Z,31.99
2018-07-16T15:39:44.846Z,31.74
2018-07-16T15:42:13.566Z,31.27
2018-07-16T15:44:42.230Z,30.80
2018-07-16T15:47:10.995Z,30.19
2018-07-16T15:49:40.696Z,29.78
2018-07-16T15:52:09.461Z,29.97
2018-07-16T15:54:38.173Z,30.56
2018-07-16T15:57:07.957Z,30.42
2018-07-16T15:59:36.698Z,30.26
2018-07-16T16:02:05.384Z,30.45
2018-07-16T16:04:34.115Z,30.55
2018-07-16T16:07:03.095Z,30.32
2018-07-16T16:09:31.786Z,30.14
2018-07-16T16:12:00.464Z,29.97
2018-07-16T16:14:29.819Z,29.71
2018-07-16T16:16:58.821Z,29.79
2018-07-16T16:19:27.533Z,29.98
2018-07-16T16:21:56.286Z,30.06
2018-07-16T16:24:25.047Z,30.02
2018-07-16T16:26:53.723Z,29.32
2018-07-16T16:29:22.462Z,29.37
2018-07-16T16:31:51.555Z,29.27
2018-07-16T16:34:20.291Z,29.00
2018-07-16T16:36:49.124Z,28.75
2018-07-16T16:39:17.893Z,28.33
2018-07-16T16:41:46.816Z,28.03
2018-07-16T16:44:15.556Z,28.01
2018-07-16T16:46:44.291Z,27.94
2018-07-16T16:49:13.127Z,27.59
2018-07-16T16:51:42.747Z,27.60
2018-07-16T16:54:11.436Z,27.34
2018-07-16T16:56:40.247Z,27.30
2018-07-16T16:59:13.797Z,27.32
2018-07-16T17:01:44.199Z,27.29
2018-07-16T17:04:12.957Z,27.28
2018-07-16T17:06:41.611Z,27.21
2018-07-16T17:09:10.318Z,27.04
2018-07-16T17:11:39.082Z,26.83
2018-07-16T17:14:07.899Z,26.93
2018-07-16T17:16:37.801Z,26.98
2018-07-16T17:19:06.524Z,26.99
2018-07-16T17:21:35.209Z,27.09
2018-07-16T17:24:04.040Z,27.01
2018-07-16T17:26:32.753Z,26.79
2018-07-16T17:29:01.424Z,26.63
2018-07-16T17:31:30.112Z,26.59
2018-07-16T17:33:58.970Z,26.51
2018-07-16T17:36:27.717Z,26.69
2018-07-16T17:38:56.450Z,26.59
2018-07-16T17:41:25.238Z,26.27
2018-07-16T17:43:53.964Z,26.27
2018-07-16T17:46:22.742Z,25.97
2018-07-16T17:48:51.475Z,25.87
2018-07-16T17:51:20.309Z,25.89
2018-07-16T17:53:49.162Z,25.78
2018-07-16T17:56:17.830Z,25.81
2018-07-16T17:58:46.760Z,25.73
2018-07-16T18:01:15.650Z,25.54
2018-07-16T18:03:44.411Z,25.42
2018-07-16T18:06:13.255Z,25.25
2018-07-16T18:08:41.980Z,25.27
2018-07-16T18:16:24.755Z,25.03
2018-07-16T18:18:53.630Z,25.00
2018-07-16T18:21:22.514Z,24.90
2018-07-16T18:23:51.458Z,25.01
2018-07-16T18:26:20.307Z,25.10
2018-07-16T18:28:49.045Z,25.19
2018-07-16T18:31:17.909Z,25.34
2018-07-16T18:33:46.637Z,25.33
2018-07-16T18:36:15.445Z,25.39
2018-07-16T18:38:44.272Z,25.45
2018-07-16T18:41:13.022Z,25.46
2018-07-16T18:43:41.924Z,25.44
2018-07-16T18:46:10.943Z,25.37
2018-07-16T18:48:39.646Z,25.24
2018-07-16T18:51:08.351Z,25.14
2018-07-16T18:53:37.030Z,25.05
2018-07-16T18:56:05.998Z,25.11
2018-07-16T18:58:34.759Z,25.17
2018-07-16T19:01:03.485Z,25.13
2018-07-16T19:03:32.342Z,25.15
2018-07-16T19:06:01.087Z,25.17
2018-07-16T19:08:29.877Z,25.14
2018-07-16T19:10:58.571Z,25.18
2018-07-16T19:13:27.274Z,25.09
2018-07-16T19:15:58.178Z,25.06
2018-07-16T19:18:26.997Z,25.09
2018-07-16T19:20:55.899Z,25.13
2018-07-16T19:23:24.958Z,25.17
2018-07-16T19:25:56.559Z,25.21
2018-07-16T19:28:25.346Z,25.25
2018-07-16T19:30:54.199Z,25.21
2018-07-16T19:33:23.085Z,25.11
2018-07-16T19:35:51.832Z,25.05
2018-07-16T19:38:20.633Z,24.94
2018-07-16T19:40:49.384Z,24.93
2018-07-16T19:43:19.126Z,24.79
2018-07-16T19:45:47.838Z,24.80
2018-07-16T19:48:16.691Z,24.76
2018-07-16T19:50:45.553Z,24.73
2018-07-16T19:53:14.344Z,24.62
2018-07-16T19:55:43.113Z,24.65
2018-07-16T19:58:11.943Z,24.58
2018-07-16T20:00:40.857Z,24.55
2018-07-16T20:03:09.716Z,24.57
2018-07-16T20:05:38.491Z,24.47
2018-07-16T20:08:10.036Z,24.44
2018-07-16T20:10:38.855Z,24.38
2018-07-16T20:13:08.134Z,24.37
2018-07-16T20:15:37.116Z,24.25
2018-07-16T20:18:06.149Z,24.24
2018-07-16T20:20:44.867Z,24.16
2018-07-16T20:23:14.517Z,24.17
2018-07-16T20:25:43.473Z,24.23
2018-07-16T20:28:12.257Z,24.25
2018-07-16T20:30:41.012Z,24.21
2018-07-16T20:33:09.869Z,24.14
2018-07-16T20:35:38.614Z,24.18
2018-07-16T20:38:07.445Z,24.08
2018-07-16T20:40:36.341Z,24.06
2018-07-16T20:43:05.211Z,24.00
2018-07-16T20:45:33.966Z,23.82
2018-07-16T20:48:02.707Z,23.46
2018-07-16T20:50:31.500Z,23.49
2018-07-16T20:53:01.549Z,23.66
2018-07-16T20:55:30.778Z,23.23
2018-07-16T20:58:00.849Z,23.01
2018-07-16T21:00:29.676Z,22.77
2018-07-16T21:02:58.362Z,22.77
2018-07-16T21:05:27.106Z,22.85
2018-07-16T21:07:55.958Z,22.85
2018-07-16T21:10:24.814Z,22.61
2018-07-16T21:12:53.719Z,22.82
2018-07-16T21:15:22.531Z,22.99
2018-07-16T21:17:51.284Z,23.01
2018-07-16T21:20:20.053Z,22.91
2018-07-16T21:22:49.059Z,22.86
2018-07-16T21:25:20.644Z,22.72
2018-07-16T21:27:49.360Z,22.54
2018-07-16T21:30:18.168Z,22.46
2018-07-16T21:32:46.950Z,22.42
2018-07-16T21:35:15.663Z,22.40
2018-07-16T21:37:44.522Z,22.35
2018-07-16T21:40:13.405Z,22.27
2018-07-16T21:42:42.306Z,22.26
2018-07-16T21:45:11.078Z,22.22
2018-07-16T21:47:39.883Z,22.19
2018-07-16T21:50:08.639Z,22.21
2018-07-16T21:52:37.530Z,22.18
2018-07-16T21:55:06.311Z,22.13
2018-07-16T21:57:35.031Z,22.09
2018-07-16T22:00:05.377Z,21.99
2018-07-16T22:02:34.126Z,21.91
2018-07-16T22:05:02.918Z,21.85
2018-07-16T22:07:31.731Z,21.82
2018-07-16T22:10:00.383Z,21.78
2018-07-16T22:12:29.295Z,21.80
2018-07-16T22:14:58.016Z,21.80
2018-07-16T22:17:26.712Z,21.76
2018-07-16T22:19:55.423Z,21.61
2018-07-16T22:22:24.123Z,21.67
2018-07-16T22:24:52.831Z,21.69
2018-07-16T22:27:21.609Z,21.65
2018-07-16T22:29:50.310Z,21.67
2018-07-16T22:32:19.015Z,21.68
2018-07-16T22:34:48.490Z,21.69
2018-07-16T22:37:18.112Z,21.68
2018-07-16T22:39:46.828Z,21.67
2018-07-16T22:42:15.771Z,21.63
2018-07-16T22:44:44.443Z,21.59
2018-07-16T22:47:13.161Z,21.53
2018-07-16T22:49:41.840Z,21.60
2018-07-16T22:52:10.492Z,21.57
2018-07-16T22:54:39.169Z,21.50
2018-07-16T22:57:07.881Z,21.48
2018-07-16T22:59:36.570Z,21.49
2018-07-16T23:02:05.301Z,21.41
2018-07-16T23:04:34.039Z,21.40
2018-07-16T23:07:02.805Z,21.33
2018-07-16T23:09:31.587Z,21.32
2018-07-16T23:12:00.282Z,21.29
2018-07-16T23:14:28.965Z,21.29
2018-07-16T23:16:57.648Z,21.20
2018-07-16T23:19:26.374Z,21.17
2018-07-16T23:21:55.123Z,21.12
2018-07-16T23:24:23.822Z,21.03
2018-07-16T23:26:52.475Z,20.93
2018-07-16T23:29:21.179Z,20.87
2018-07-16T23:31:49.895Z,20.88
2018-07-16T23:34:18.621Z,20.87
2018-07-16T23:36:47.324Z,20.80
2018-07-16T23:39:16.070Z,20.68
2018-07-16T23:41:44.784Z,20.64
2018-07-16T23:44:13.460Z,20.59
2018-07-16T23:46:42.755Z,20.48
2018-07-16T23:49:11.512Z,20.46
2018-07-16T23:51:40.306Z,20.45
2018-07-16T23:54:08.998Z,20.50
2018-07-16T23:56:37.695Z,20.56
2018-07-16T23:59:06.388Z,20.55
